JST532 YMML-YSSY
Flight info
| Callsign | JST532 |
|---|---|
| Flight time | 1h 3m |
| Altitude | 37000 |
| Route | ML H129 DOSEL Y59 RIVET |
| Aircraft | A320/M-SDE3FGHIRWY/LB1 |
Departure
| Time | 2026-05-06 20:37 |
|---|---|
| Airport | Melbourne Airport (YMML) |
Arrival
| Time | 2026-05-06 21:40 |
|---|---|
| Airport | Sydney Kingsford Smith International Airport (YSSY) |
| Time | Latitude | Longitude | Altitude | Speed | Heading |
|---|---|---|---|---|---|
| 2026-05-06 20:11 | -37.66806 | 144.84329 | 398 ft | 0 kts | 82° |
| 2026-05-06 20:30 | -37.66807 | 144.84317 | 396 ft | 4 kts | 82° |
| 2026-05-06 20:30 | -37.66811 | 144.84283 | 398 ft | 4 kts | 82° |
| 2026-05-06 20:31 | -37.66815 | 144.84249 | 398 ft | 4 kts | 82° |
| 2026-05-06 20:31 | -37.66818 | 144.84223 | 395 ft | 4 kts | 64° |
| 2026-05-06 20:31 | -37.66834 | 144.84203 | 398 ft | 4 kts | 5° |
| 2026-05-06 20:31 | -37.66858 | 144.84205 | 394 ft | 4 kts | 348° |
| 2026-05-06 20:32 | -37.66875 | 144.84209 | 395 ft | 0 kts | 351° |
| 2026-05-06 20:34 | -37.66874 | 144.84209 | 395 ft | 2 kts | 351° |
| 2026-05-06 20:34 | -37.66810 | 144.84196 | 399 ft | 16 kts | 351° |
| 2026-05-06 20:35 | -37.66675 | 144.84171 | 403 ft | 23 kts | 353° |
| 2026-05-06 20:35 | -37.66531 | 144.84271 | 404 ft | 29 kts | 74° |
| 2026-05-06 20:35 | -37.66498 | 144.84535 | 410 ft | 31 kts | 81° |
| 2026-05-06 20:35 | -37.66444 | 144.84762 | 410 ft | 25 kts | 28° |
| 2026-05-06 20:36 | -37.66277 | 144.84764 | 414 ft | 25 kts | 1° |
| 2026-05-06 20:36 | -37.66219 | 144.84686 | 410 ft | 10 kts | 265° |
| 2026-05-06 20:36 | -37.66206 | 144.84483 | 415 ft | 54 kts | 275° |
| 2026-05-06 20:36 | -37.66164 | 144.83738 | 412 ft | 113 kts | 274° |
| 2026-05-06 20:37 | -37.66098 | 144.82589 | 641 ft | 137 kts | 273° |
| 2026-05-06 20:37 | -37.66033 | 144.81404 | 1334 ft | 135 kts | 270° |
| 2026-05-06 20:37 | -37.65964 | 144.80226 | 2045 ft | 135 kts | 266° |
| 2026-05-06 20:37 | -37.65895 | 144.79015 | 2448 ft | 147 kts | 266° |
| 2026-05-06 20:38 | -37.65821 | 144.77628 | 2726 ft | 169 kts | 266° |
| 2026-05-06 20:38 | -37.65737 | 144.76035 | 3021 ft | 194 kts | 266° |
| 2026-05-06 20:38 | -37.65639 | 144.74229 | 3401 ft | 218 kts | 266° |
| 2026-05-06 20:38 | -37.65525 | 144.72237 | 4002 ft | 233 kts | 267° |
| 2026-05-06 20:39 | -37.65397 | 144.70169 | 4865 ft | 240 kts | 266° |
| 2026-05-06 20:39 | -37.65198 | 144.68771 | 5436 ft | 251 kts | 278° |
| 2026-05-06 20:39 | -37.64012 | 144.66120 | 6589 ft | 276 kts | 304° |
| 2026-05-06 20:39 | -37.62433 | 144.64618 | 7411 ft | 295 kts | 328° |
| 2026-05-06 20:40 | -37.60456 | 144.63766 | 8258 ft | 303 kts | 338° |
| 2026-05-06 20:40 | -37.59107 | 144.63270 | 8828 ft | 306 kts | 339° |
| 2026-05-06 20:40 | -37.56967 | 144.62895 | 9664 ft | 317 kts | 358° |
| 2026-05-06 20:40 | -37.54771 | 144.63322 | 10466 ft | 324 kts | 17° |
| 2026-05-06 20:41 | -37.52686 | 144.64572 | 10805 ft | 344 kts | 36° |
| 2026-05-06 20:41 | -37.50925 | 144.66716 | 11047 ft | 360 kts | 56° |
| 2026-05-06 20:41 | -37.49424 | 144.69277 | 11621 ft | 367 kts | 56° |
| 2026-05-06 20:41 | -37.47892 | 144.71859 | 12341 ft | 369 kts | 56° |
| 2026-05-06 20:42 | -37.46518 | 144.74641 | 13077 ft | 370 kts | 62° |
| 2026-05-06 20:42 | -37.45222 | 144.77453 | 13818 ft | 372 kts | 62° |
| 2026-05-06 20:42 | -37.43916 | 144.80289 | 14449 ft | 375 kts | 63° |
| 2026-05-06 20:42 | -37.42623 | 144.83104 | 15010 ft | 380 kts | 63° |
| 2026-05-06 20:43 | -37.41292 | 144.86002 | 15553 ft | 384 kts | 63° |
| 2026-05-06 20:43 | -37.39952 | 144.88926 | 16097 ft | 389 kts | 63° |
| 2026-05-06 20:43 | -37.38593 | 144.91885 | 16637 ft | 393 kts | 63° |
| 2026-05-06 20:43 | -37.37218 | 144.94878 | 17193 ft | 398 kts | 63° |
| 2026-05-06 20:44 | -37.35820 | 144.97911 | 17709 ft | 403 kts | 63° |
| 2026-05-06 20:44 | -37.34402 | 145.00981 | 18266 ft | 408 kts | 62° |
| 2026-05-06 20:44 | -37.32977 | 145.04063 | 18910 ft | 407 kts | 63° |
| 2026-05-06 20:44 | -37.31549 | 145.07151 | 19440 ft | 410 kts | 63° |
| 2026-05-06 20:45 | -37.30110 | 145.10264 | 19921 ft | 415 kts | 64° |
| 2026-05-06 20:45 | -37.28649 | 145.13422 | 20383 ft | 420 kts | 64° |
| 2026-05-06 20:45 | -37.27175 | 145.16610 | 20831 ft | 425 kts | 64° |
| 2026-05-06 20:45 | -37.25681 | 145.19839 | 21263 ft | 429 kts | 65° |
| 2026-05-06 20:46 | -37.24188 | 145.23057 | 21672 ft | 434 kts | 65° |
| 2026-05-06 20:46 | -37.22658 | 145.26346 | 22098 ft | 438 kts | 65° |
| 2026-05-06 20:46 | -37.21116 | 145.29657 | 22605 ft | 441 kts | 65° |
| 2026-05-06 20:46 | -37.19563 | 145.32987 | 23053 ft | 444 kts | 65° |
| 2026-05-06 20:47 | -37.17997 | 145.36346 | 23471 ft | 448 kts | 65° |
| 2026-05-06 20:47 | -37.16387 | 145.39725 | 23857 ft | 455 kts | 62° |
| 2026-05-06 20:47 | -37.14545 | 145.42992 | 24199 ft | 460 kts | 59° |
| 2026-05-06 20:47 | -37.12673 | 145.46257 | 24544 ft | 463 kts | 58° |
| 2026-05-06 20:48 | -37.10780 | 145.49552 | 24891 ft | 467 kts | 58° |
| 2026-05-06 20:48 | -37.08878 | 145.52855 | 25298 ft | 469 kts | 58° |
| 2026-05-06 20:48 | -37.06992 | 145.56127 | 25750 ft | 469 kts | 57° |
| 2026-05-06 20:48 | -37.05081 | 145.59442 | 26141 ft | 471 kts | 57° |
| 2026-05-06 20:49 | -37.03163 | 145.62771 | 26506 ft | 473 kts | 57° |
| 2026-05-06 20:49 | -37.01232 | 145.66121 | 26822 ft | 476 kts | 56° |
| 2026-05-06 20:49 | -36.99288 | 145.69490 | 27105 ft | 480 kts | 56° |
| 2026-05-06 20:49 | -36.97324 | 145.72892 | 27439 ft | 483 kts | 56° |
| 2026-05-06 20:50 | -36.95354 | 145.76309 | 27778 ft | 486 kts | 56° |
| 2026-05-06 20:50 | -36.93371 | 145.79745 | 28172 ft | 488 kts | 55° |
| 2026-05-06 20:50 | -36.91369 | 145.83199 | 28617 ft | 489 kts | 55° |
| 2026-05-06 20:50 | -36.89365 | 145.86650 | 28992 ft | 491 kts | 55° |
| 2026-05-06 20:51 | -36.87348 | 145.90117 | 29297 ft | 494 kts | 54° |
| 2026-05-06 20:51 | -36.85348 | 145.93552 | 29613 ft | 497 kts | 54° |
| 2026-05-06 20:51 | -36.83305 | 145.97061 | 29948 ft | 500 kts | 54° |
| 2026-05-06 20:51 | -36.81258 | 146.00577 | 30301 ft | 501 kts | 54° |
| 2026-05-06 20:52 | -36.79211 | 146.04096 | 30674 ft | 501 kts | 54° |
| 2026-05-06 20:52 | -36.77167 | 146.07606 | 31129 ft | 499 kts | 53° |
| 2026-05-06 20:52 | -36.75123 | 146.11108 | 31511 ft | 498 kts | 53° |
| 2026-05-06 20:52 | -36.73077 | 146.14607 | 31826 ft | 500 kts | 52° |
| 2026-05-06 20:53 | -36.71022 | 146.18109 | 32181 ft | 500 kts | 52° |
| 2026-05-06 20:53 | -36.68964 | 146.21613 | 32555 ft | 500 kts | 52° |
| 2026-05-06 20:53 | -36.66911 | 146.25114 | 32946 ft | 500 kts | 52° |
| 2026-05-06 20:53 | -36.64886 | 146.28566 | 33342 ft | 500 kts | 52° |
| 2026-05-06 20:54 | -36.62835 | 146.32059 | 33767 ft | 499 kts | 51° |
| 2026-05-06 20:54 | -36.60786 | 146.35544 | 34232 ft | 496 kts | 51° |
| 2026-05-06 20:54 | -36.58754 | 146.38999 | 34608 ft | 494 kts | 51° |
| 2026-05-06 20:54 | -36.56723 | 146.42447 | 34930 ft | 494 kts | 51° |
| 2026-05-06 20:55 | -36.54694 | 146.45884 | 35231 ft | 493 kts | 51° |
| 2026-05-06 20:55 | -36.52660 | 146.49323 | 35521 ft | 493 kts | 51° |
| 2026-05-06 20:55 | -36.50629 | 146.52761 | 35798 ft | 493 kts | 51° |
| 2026-05-06 20:55 | -36.48600 | 146.56191 | 36036 ft | 493 kts | 50° |
| 2026-05-06 20:56 | -36.46563 | 146.59628 | 36154 ft | 495 kts | 50° |
| 2026-05-06 20:56 | -36.42470 | 146.66517 | 36174 ft | 495 kts | 50° |
| 2026-05-06 20:57 | -36.38376 | 146.73408 | 36177 ft | 495 kts | 50° |
| 2026-05-06 20:57 | -36.34282 | 146.80281 | 36168 ft | 496 kts | 50° |
| 2026-05-06 20:58 | -36.30190 | 146.87118 | 36173 ft | 496 kts | 49° |
| 2026-05-06 20:58 | -36.26082 | 146.93985 | 36172 ft | 496 kts | 49° |
| 2026-05-06 20:59 | -36.21963 | 147.00864 | 36132 ft | 496 kts | 49° |
| 2026-05-06 20:59 | -36.17858 | 147.07698 | 36162 ft | 497 kts | 49° |
| 2026-05-06 21:00 | -36.13721 | 147.14564 | 36166 ft | 496 kts | 49° |
| 2026-05-06 21:00 | -36.09597 | 147.21407 | 36166 ft | 495 kts | 49° |
| 2026-05-06 21:01 | -36.05466 | 147.28238 | 36167 ft | 497 kts | 48° |
| 2026-05-06 21:01 | -36.01312 | 147.35078 | 36161 ft | 497 kts | 48° |
| 2026-05-06 21:02 | -35.97173 | 147.41904 | 36151 ft | 495 kts | 48° |
| 2026-05-06 21:02 | -35.93050 | 147.48705 | 36158 ft | 494 kts | 47° |
| 2026-05-06 21:02 | -35.90984 | 147.52102 | 36317 ft | 495 kts | 47° |
| 2026-05-06 21:03 | -35.88919 | 147.55494 | 36619 ft | 494 kts | 47° |
| 2026-05-06 21:03 | -35.86857 | 147.58879 | 36909 ft | 493 kts | 48° |
| 2026-05-06 21:03 | -35.84796 | 147.62256 | 37108 ft | 493 kts | 48° |
| 2026-05-06 21:04 | -35.80661 | 147.69003 | 37148 ft | 498 kts | 47° |
| 2026-05-06 21:04 | -35.76480 | 147.75811 | 37151 ft | 499 kts | 47° |
| 2026-05-06 21:05 | -35.72298 | 147.82632 | 37152 ft | 499 kts | 47° |
| 2026-05-06 21:05 | -35.68110 | 147.89443 | 37152 ft | 499 kts | 47° |
| 2026-05-06 21:06 | -35.63914 | 147.96245 | 37129 ft | 499 kts | 46° |
| 2026-05-06 21:06 | -35.59721 | 148.03041 | 37158 ft | 499 kts | 46° |
| 2026-05-06 21:07 | -35.55517 | 148.09844 | 37163 ft | 499 kts | 46° |
| 2026-05-06 21:07 | -35.51311 | 148.16617 | 37110 ft | 499 kts | 46° |
| 2026-05-06 21:08 | -35.47095 | 148.23393 | 37149 ft | 499 kts | 46° |
| 2026-05-06 21:08 | -35.42883 | 148.30169 | 37153 ft | 499 kts | 46° |
| 2026-05-06 21:09 | -35.38691 | 148.36882 | 37146 ft | 499 kts | 45° |
| 2026-05-06 21:09 | -35.34480 | 148.43626 | 37113 ft | 499 kts | 45° |
| 2026-05-06 21:10 | -35.30258 | 148.50374 | 37098 ft | 499 kts | 45° |
| 2026-05-06 21:10 | -35.26040 | 148.57097 | 37133 ft | 498 kts | 45° |
| 2026-05-06 21:11 | -35.21824 | 148.63803 | 37121 ft | 497 kts | 45° |
| 2026-05-06 21:11 | -35.17597 | 148.70493 | 37086 ft | 497 kts | 45° |
| 2026-05-06 21:12 | -35.13369 | 148.77181 | 37106 ft | 497 kts | 45° |
| 2026-05-06 21:12 | -35.09148 | 148.83878 | 37105 ft | 497 kts | 45° |
| 2026-05-06 21:13 | -35.04936 | 148.90554 | 37064 ft | 496 kts | 44° |
| 2026-05-06 21:13 | -35.00709 | 148.97207 | 37075 ft | 496 kts | 44° |
| 2026-05-06 21:14 | -34.96468 | 149.03870 | 37093 ft | 497 kts | 44° |
| 2026-05-06 21:14 | -34.92242 | 149.10509 | 37100 ft | 494 kts | 44° |
| 2026-05-06 21:15 | -34.88106 | 149.16997 | 37092 ft | 486 kts | 44° |
| 2026-05-06 21:15 | -34.83954 | 149.23491 | 37099 ft | 485 kts | 44° |
| 2026-05-06 21:16 | -34.79801 | 149.29965 | 37089 ft | 485 kts | 44° |
| 2026-05-06 21:16 | -34.75644 | 149.36431 | 37048 ft | 485 kts | 44° |
| 2026-05-06 21:17 | -34.72021 | 149.43496 | 36780 ft | 499 kts | 55° |
| 2026-05-06 21:17 | -34.70380 | 149.47262 | 35440 ft | 509 kts | 54° |
| 2026-05-06 21:17 | -34.68703 | 149.51105 | 34012 ft | 519 kts | 53° |
| 2026-05-06 21:17 | -34.67013 | 149.54981 | 32757 ft | 518 kts | 53° |
| 2026-05-06 21:18 | -34.65343 | 149.58830 | 31703 ft | 511 kts | 53° |
| 2026-05-06 21:18 | -34.63704 | 149.62613 | 30818 ft | 500 kts | 53° |
| 2026-05-06 21:18 | -34.62112 | 149.66296 | 30060 ft | 486 kts | 53° |
| 2026-05-06 21:18 | -34.60552 | 149.69885 | 28973 ft | 477 kts | 53° |
| 2026-05-06 21:19 | -34.59008 | 149.73406 | 27881 ft | 469 kts | 53° |
| 2026-05-06 21:19 | -34.57476 | 149.76876 | 26834 ft | 463 kts | 53° |
| 2026-05-06 21:19 | -34.55963 | 149.80294 | 25827 ft | 457 kts | 53° |
| 2026-05-06 21:19 | -34.54465 | 149.83681 | 24832 ft | 452 kts | 54° |
| 2026-05-06 21:20 | -34.52988 | 149.87018 | 23920 ft | 447 kts | 54° |
| 2026-05-06 21:20 | -34.52024 | 149.89199 | 23548 ft | 437 kts | 54° |
| 2026-05-06 21:20 | -34.50170 | 149.93424 | 22965 ft | 413 kts | 54° |
| 2026-05-06 21:20 | -34.48852 | 149.96433 | 22527 ft | 396 kts | 54° |
| 2026-05-06 21:21 | -34.47597 | 149.99285 | 22119 ft | 382 kts | 53° |
| 2026-05-06 21:21 | -34.46341 | 150.02112 | 21698 ft | 379 kts | 53° |
| 2026-05-06 21:21 | -34.45086 | 150.04917 | 21288 ft | 378 kts | 53° |
| 2026-05-06 21:21 | -34.43834 | 150.07714 | 20846 ft | 377 kts | 53° |
| 2026-05-06 21:22 | -34.42591 | 150.10500 | 20417 ft | 376 kts | 53° |
| 2026-05-06 21:22 | -34.41347 | 150.13295 | 19974 ft | 376 kts | 54° |
| 2026-05-06 21:22 | -34.40110 | 150.16080 | 19524 ft | 376 kts | 54° |
| 2026-05-06 21:22 | -34.38868 | 150.18870 | 19082 ft | 375 kts | 54° |
| 2026-05-06 21:23 | -34.37626 | 150.21652 | 18644 ft | 375 kts | 54° |
| 2026-05-06 21:23 | -34.36391 | 150.24419 | 18170 ft | 374 kts | 54° |
| 2026-05-06 21:23 | -34.35154 | 150.27190 | 17700 ft | 373 kts | 54° |
| 2026-05-06 21:23 | -34.33927 | 150.29943 | 17227 ft | 371 kts | 55° |
| 2026-05-06 21:24 | -34.32707 | 150.32684 | 16810 ft | 369 kts | 55° |
| 2026-05-06 21:24 | -34.31490 | 150.35415 | 16362 ft | 368 kts | 55° |
| 2026-05-06 21:24 | -34.30275 | 150.38136 | 15911 ft | 367 kts | 55° |
| 2026-05-06 21:24 | -34.29061 | 150.40841 | 15460 ft | 367 kts | 55° |
| 2026-05-06 21:25 | -34.27857 | 150.43520 | 15005 ft | 367 kts | 55° |
| 2026-05-06 21:25 | -34.26636 | 150.46240 | 14557 ft | 368 kts | 56° |
| 2026-05-06 21:25 | -34.25417 | 150.48964 | 14107 ft | 367 kts | 56° |
| 2026-05-06 21:25 | -34.24202 | 150.51680 | 13621 ft | 367 kts | 56° |
| 2026-05-06 21:26 | -34.22993 | 150.54386 | 13153 ft | 365 kts | 56° |
| 2026-05-06 21:26 | -34.21789 | 150.57073 | 12702 ft | 363 kts | 56° |
| 2026-05-06 21:26 | -34.20583 | 150.59758 | 12249 ft | 361 kts | 56° |
| 2026-05-06 21:26 | -34.19390 | 150.62417 | 11781 ft | 359 kts | 57° |
| 2026-05-06 21:27 | -34.18203 | 150.65062 | 11354 ft | 357 kts | 57° |
| 2026-05-06 21:27 | -34.17019 | 150.67691 | 10910 ft | 355 kts | 57° |
| 2026-05-06 21:27 | -34.16237 | 150.69430 | 10616 ft | 354 kts | 57° |
| 2026-05-06 21:27 | -34.15067 | 150.72036 | 10257 ft | 351 kts | 57° |
| 2026-05-06 21:28 | -34.13561 | 150.75410 | 10072 ft | 336 kts | 57° |
| 2026-05-06 21:28 | -34.12468 | 150.77845 | 9953 ft | 322 kts | 57° |
| 2026-05-06 21:28 | -34.11757 | 150.79425 | 9675 ft | 314 kts | 57° |
| 2026-05-06 21:28 | -34.10723 | 150.81711 | 9182 ft | 307 kts | 56° |
| 2026-05-06 21:29 | -34.09695 | 150.83975 | 8859 ft | 307 kts | 57° |
| 2026-05-06 21:29 | -34.08688 | 150.86197 | 8581 ft | 306 kts | 57° |
| 2026-05-06 21:29 | -34.07669 | 150.88455 | 8283 ft | 305 kts | 57° |
| 2026-05-06 21:29 | -34.06663 | 150.90696 | 8002 ft | 304 kts | 58° |
| 2026-05-06 21:30 | -34.05655 | 150.92936 | 7704 ft | 303 kts | 57° |
| 2026-05-06 21:30 | -34.04657 | 150.95179 | 7383 ft | 303 kts | 58° |
| 2026-05-06 21:30 | -34.03657 | 150.97412 | 7091 ft | 302 kts | 57° |
| 2026-05-06 21:30 | -34.02647 | 150.99623 | 6789 ft | 301 kts | 57° |
| 2026-05-06 21:31 | -34.01634 | 151.01817 | 6501 ft | 300 kts | 57° |
| 2026-05-06 21:31 | -34.00607 | 151.04031 | 6194 ft | 300 kts | 57° |
| 2026-05-06 21:31 | -33.99800 | 151.06305 | 5868 ft | 301 kts | 80° |
| 2026-05-06 21:31 | -33.99973 | 151.08742 | 5563 ft | 295 kts | 115° |
| 2026-05-06 21:32 | -34.01161 | 151.10653 | 5260 ft | 280 kts | 150° |
| 2026-05-06 21:32 | -34.04707 | 151.11374 | 4660 ft | 258 kts | 189° |
| 2026-05-06 21:32 | -34.06501 | 151.11339 | 4354 ft | 260 kts | 182° |
| 2026-05-06 21:33 | -34.08299 | 151.11705 | 4047 ft | 263 kts | 174° |
| 2026-05-06 21:33 | -34.10071 | 151.12224 | 3807 ft | 261 kts | 173° |
| 2026-05-06 21:33 | -34.11832 | 151.12775 | 3495 ft | 261 kts | 173° |
| 2026-05-06 21:33 | -34.13587 | 151.13338 | 3167 ft | 260 kts | 173° |
| 2026-05-06 21:34 | -34.15288 | 151.14072 | 3008 ft | 267 kts | 156° |
| 2026-05-06 21:34 | -34.16627 | 151.15667 | 3017 ft | 281 kts | 127° |
| 2026-05-06 21:34 | -34.17286 | 151.17854 | 3016 ft | 275 kts | 103° |
| 2026-05-06 21:34 | -34.17199 | 151.20096 | 3020 ft | 264 kts | 71° |
| 2026-05-06 21:35 | -34.16343 | 151.21947 | 3006 ft | 243 kts | 41° |
| 2026-05-06 21:35 | -34.15057 | 151.23089 | 3030 ft | 215 kts | 14° |
| 2026-05-06 21:35 | -34.13742 | 151.23524 | 3001 ft | 179 kts | 352° |
| 2026-05-06 21:35 | -34.12590 | 151.23422 | 2986 ft | 158 kts | 335° |
| 2026-05-06 21:36 | -34.11535 | 151.23149 | 2869 ft | 152 kts | 335° |
| 2026-05-06 21:36 | -34.10510 | 151.22881 | 2719 ft | 149 kts | 335° |
| 2026-05-06 21:36 | -34.09502 | 151.22617 | 2520 ft | 147 kts | 335° |
| 2026-05-06 21:36 | -34.08502 | 151.22355 | 2329 ft | 146 kts | 336° |
| 2026-05-06 21:37 | -34.07521 | 151.22099 | 2131 ft | 146 kts | 337° |
| 2026-05-06 21:37 | -34.06526 | 151.21840 | 1932 ft | 146 kts | 338° |
| 2026-05-06 21:37 | -34.05535 | 151.21582 | 1738 ft | 142 kts | 340° |
| 2026-05-06 21:37 | -34.04581 | 151.21335 | 1532 ft | 138 kts | 339° |
| 2026-05-06 21:38 | -34.03645 | 151.21091 | 1353 ft | 136 kts | 340° |
| 2026-05-06 21:38 | -34.02720 | 151.20850 | 1159 ft | 136 kts | 341° |
| 2026-05-06 21:38 | -34.01793 | 151.20608 | 987 ft | 136 kts | 341° |
| 2026-05-06 21:38 | -34.00867 | 151.20368 | 800 ft | 138 kts | 344° |
| 2026-05-06 21:39 | -33.99933 | 151.20125 | 626 ft | 136 kts | 345° |
| 2026-05-06 21:39 | -33.99009 | 151.19885 | 442 ft | 134 kts | 345° |
| 2026-05-06 21:39 | -33.98090 | 151.19646 | 270 ft | 134 kts | 345° |
| 2026-05-06 21:39 | -33.97184 | 151.19409 | 97 ft | 134 kts | 345° |
| 2026-05-06 21:40 | -33.96311 | 151.19177 | 23 ft | 112 kts | 347° |
| 2026-05-06 21:40 | -33.95704 | 151.19023 | 25 ft | 65 kts | 349° |
| 2026-05-06 21:40 | -33.95390 | 151.18915 | 22 ft | 44 kts | 334° |
| 2026-05-06 21:40 | -33.95171 | 151.18724 | 24 ft | 25 kts | 316° |
| 2026-05-06 21:41 | -33.95094 | 151.18564 | 27 ft | 20 kts | 266° |
| 2026-05-06 21:41 | -33.95127 | 151.18385 | 26 ft | 24 kts | 259° |
| 2026-05-06 21:41 | -33.95172 | 151.18134 | 26 ft | 24 kts | 260° |
| 2026-05-06 21:41 | -33.95078 | 151.18028 | 26 ft | 25 kts | 349° |
| 2026-05-06 21:42 | -33.94871 | 151.17973 | 21 ft | 36 kts | 348° |
| 2026-05-06 21:42 | -33.94632 | 151.17910 | 25 ft | 20 kts | 350° |
| 2026-05-06 21:42 | -33.94493 | 151.17889 | 25 ft | 23 kts | 13° |
| 2026-05-06 21:42 | -33.94341 | 151.17896 | 25 ft | 24 kts | 346° |
| 2026-05-06 21:43 | -33.94175 | 151.17852 | 24 ft | 26 kts | 348° |
| 2026-05-06 21:43 | -33.93990 | 151.17803 | 23 ft | 28 kts | 347° |
| 2026-05-06 21:43 | -33.93851 | 151.17734 | 21 ft | 16 kts | 317° |
| 2026-05-06 21:43 | -33.93742 | 151.17686 | 22 ft | 17 kts | 346° |
| 2026-05-06 21:44 | -33.93647 | 151.17639 | 29 ft | 13 kts | 327° |
| 2026-05-06 21:44 | -33.93558 | 151.17602 | 27 ft | 12 kts | 349° |
| 2026-05-06 21:44 | -33.93496 | 151.17591 | 28 ft | 8 kts | 354° |
| 2026-05-06 21:44 | -33.93458 | 151.17613 | 30 ft | 5 kts | 62° |
| 2026-05-06 21:45 | -33.93458 | 151.17655 | 30 ft | 5 kts | 101° |
| 2026-05-06 21:45 | -33.93463 | 151.17687 | 30 ft | 2 kts | 100° |